createdAt,value
2022-11-22T00:00:31.119Z,100.00
2022-11-22T00:02:57.606Z,100.00
2022-11-22T00:05:24.375Z,100.00
2022-11-22T00:07:51.020Z,100.00
2022-11-22T00:10:17.800Z,100.00
2022-11-22T00:12:44.858Z,100.00
2022-11-22T00:15:12.229Z,100.00
2022-11-22T00:17:39.208Z,100.00
2022-11-22T00:20:08.230Z,100.00
2022-11-22T00:22:38.512Z,100.00
2022-11-22T00:25:08.789Z,100.00
2022-11-22T00:27:35.633Z,100.00
2022-11-22T00:30:02.207Z,100.00
2022-11-22T00:32:28.791Z,100.00
2022-11-22T00:34:55.301Z,100.00
2022-11-22T00:37:21.966Z,100.00
2022-11-22T00:39:48.616Z,100.00
2022-11-22T00:42:15.344Z,100.00
2022-11-22T00:44:42.011Z,100.00
2022-11-22T00:47:08.792Z,100.00
2022-11-22T00:49:35.452Z,100.00
2022-11-22T00:52:02.156Z,100.00
2022-11-22T00:54:28.744Z,100.00
2022-11-22T00:56:55.367Z,100.00
2022-11-22T00:59:22.016Z,100.00
2022-11-22T01:01:48.757Z,100.00
2022-11-22T01:04:15.508Z,100.00
2022-11-22T01:06:42.227Z,100.00
2022-11-22T01:09:09.011Z,100.00
2022-11-22T01:11:35.585Z,100.00
2022-11-22T01:14:02.430Z,100.00
2022-11-22T01:16:29.069Z,100.00
2022-11-22T01:18:55.720Z,100.00
2022-11-22T01:21:22.352Z,100.00
2022-11-22T01:23:48.937Z,100.00
2022-11-22T01:26:15.597Z,100.00
2022-11-22T01:28:42.292Z,100.00
2022-11-22T01:31:09.563Z,100.00
2022-11-22T01:33:36.251Z,100.00
2022-11-22T01:36:02.967Z,100.00
2022-11-22T01:38:29.608Z,100.00
2022-11-22T01:40:56.267Z,100.00
2022-11-22T01:43:25.546Z,100.00
2022-11-22T01:45:57.062Z,100.00
2022-11-22T01:48:41.853Z,100.00
2022-11-22T01:51:29.855Z,100.00
2022-11-22T01:54:01.209Z,100.00
2022-11-22T01:56:29.885Z,100.00
2022-11-22T01:59:00.295Z,100.00
2022-11-22T02:01:28.220Z,100.00
2022-11-22T02:03:57.830Z,100.00
2022-11-22T02:06:28.808Z,100.00
2022-11-22T02:09:01.880Z,100.00
2022-11-22T02:11:33.897Z,100.00
2022-11-22T02:14:02.530Z,100.00
2022-11-22T02:16:29.517Z,100.00
2022-11-22T02:18:56.229Z,100.00
2022-11-22T02:21:23.700Z,100.00
2022-11-22T02:23:57.128Z,100.00
2022-11-22T02:26:27.675Z,100.00
2022-11-22T02:28:57.935Z,100.00
2022-11-22T02:31:45.142Z,100.00
2022-11-22T02:34:13.350Z,100.00
2022-11-22T02:36:45.785Z,100.00
2022-11-22T02:39:16.308Z,100.00
2022-11-22T02:41:44.585Z,100.00
2022-11-22T02:44:12.418Z,100.00
2022-11-22T02:46:55.738Z,100.00
2022-11-22T02:49:24.723Z,100.00
2022-11-22T02:51:52.811Z,100.00
2022-11-22T02:54:19.878Z,100.00
2022-11-22T02:56:46.729Z,100.00
2022-11-22T02:59:13.499Z,100.00
2022-11-22T03:01:40.624Z,100.00
2022-11-22T03:04:07.515Z,100.00
2022-11-22T03:06:34.138Z,100.00
2022-11-22T03:09:00.773Z,100.00
2022-11-22T03:11:27.482Z,100.00
2022-11-22T03:13:54.222Z,100.00
2022-11-22T03:16:21.080Z,100.00
2022-11-22T03:18:47.638Z,100.00
2022-11-22T03:21:14.233Z,100.00
2022-11-22T03:23:41.027Z,100.00
2022-11-22T03:26:12.135Z,100.00
2022-11-22T03:28:38.836Z,100.00
2022-11-22T03:31:06.741Z,100.00
2022-11-22T03:33:34.501Z,100.00
2022-11-22T03:36:01.458Z,100.00
2022-11-22T03:38:28.065Z,100.00
2022-11-22T03:40:54.812Z,100.00
2022-11-22T03:43:21.844Z,100.00
2022-11-22T03:45:48.629Z,100.00
2022-11-22T03:48:15.340Z,100.00
2022-11-22T03:50:41.952Z,100.00
2022-11-22T03:53:09.027Z,100.00
2022-11-22T03:55:35.689Z,100.00
2022-11-22T03:58:02.425Z,100.00
2022-11-22T04:00:29.774Z,100.00
2022-11-22T04:02:56.502Z,100.00
2022-11-22T04:05:23.179Z,100.00
2022-11-22T04:07:50.074Z,100.00
2022-11-22T04:10:22.036Z,100.00
2022-11-22T04:12:49.088Z,100.00
2022-11-22T04:15:15.802Z,100.00
2022-11-22T04:17:45.083Z,100.00
2022-11-22T04:20:35.248Z,100.00
2022-11-22T04:23:05.019Z,100.00
2022-11-22T04:25:33.347Z,100.00
2022-11-22T04:28:00.420Z,100.00
2022-11-22T04:30:47.787Z,100.00
2022-11-22T04:33:15.746Z,100.00
2022-11-22T04:35:44.136Z,100.00
2022-11-22T04:38:12.137Z,100.00
2022-11-22T04:40:39.525Z,100.00
2022-11-22T04:43:25.996Z,100.00
2022-11-22T04:45:52.988Z,100.00
2022-11-22T04:48:19.848Z,100.00
2022-11-22T04:51:05.065Z,100.00
2022-11-22T04:53:31.788Z,100.00
2022-11-22T04:55:58.384Z,100.00
2022-11-22T04:58:25.041Z,100.00
2022-11-22T05:00:52.983Z,100.00
2022-11-22T05:03:19.983Z,100.00
2022-11-22T05:05:46.760Z,100.00
2022-11-22T05:08:13.651Z,100.00
2022-11-22T05:10:59.588Z,100.00
2022-11-22T05:13:32.420Z,100.00
2022-11-22T05:16:00.488Z,100.00
2022-11-22T05:18:28.285Z,100.00
2022-11-22T05:20:55.328Z,100.00
2022-11-22T05:23:41.734Z,100.00
2022-11-22T05:26:10.050Z,100.00
2022-11-22T05:28:38.729Z,100.00
2022-11-22T05:31:10.081Z,100.00
2022-11-22T05:33:39.219Z,100.00
2022-11-22T05:36:06.854Z,100.00
2022-11-22T05:38:35.639Z,100.00
2022-11-22T05:41:05.882Z,100.00
2022-11-22T05:43:33.205Z,100.00
2022-11-22T05:46:21.055Z,100.00
2022-11-22T05:48:50.958Z,100.00
2022-11-22T05:51:19.578Z,100.00
2022-11-22T05:53:46.338Z,100.00
2022-11-22T05:56:19.012Z,100.00
2022-11-22T05:58:46.091Z,100.00
2022-11-22T06:01:15.764Z,100.00
2022-11-22T06:03:42.878Z,100.00
2022-11-22T06:06:10.123Z,100.00
2022-11-22T06:08:39.126Z,100.00
2022-11-22T06:11:21.094Z,100.00
2022-11-22T06:13:51.796Z,100.00
2022-11-22T06:16:18.599Z,100.00
2022-11-22T06:18:45.663Z,100.00
2022-11-22T06:21:15.547Z,100.00
2022-11-22T06:23:42.323Z,100.00
2022-11-22T06:26:15.272Z,100.00
2022-11-22T06:28:42.141Z,100.00
2022-11-22T06:31:12.683Z,100.00
2022-11-22T06:33:40.405Z,100.00
2022-11-22T06:36:08.423Z,100.00
2022-11-22T06:38:35.976Z,100.00
2022-11-22T06:41:11.181Z,100.00
2022-11-22T06:43:45.128Z,100.00
2022-11-22T06:46:15.942Z,100.00
2022-11-22T06:48:43.524Z,100.00
2022-11-22T06:51:12.817Z,100.00
2022-11-22T06:53:47.244Z,100.00
2022-11-22T06:56:20.483Z,100.00
2022-11-22T06:58:49.175Z,100.00
2022-11-22T07:01:22.221Z,100.00
2022-11-22T07:03:50.039Z,100.00
2022-11-22T07:06:18.821Z,100.00
2022-11-22T07:08:46.504Z,100.00
2022-11-22T07:11:18.895Z,100.00
2022-11-22T07:13:46.394Z,100.00
2022-11-22T07:16:15.012Z,100.00
2022-11-22T07:18:42.266Z,100.00
2022-11-22T07:21:13.465Z,100.00
2022-11-22T07:23:44.640Z,100.00
2022-11-22T07:26:12.654Z,100.00
2022-11-22T07:28:39.290Z,100.00
2022-11-22T07:31:08.953Z,100.00
2022-11-22T07:33:36.285Z,100.00
2022-11-22T07:36:06.056Z,100.00
2022-11-22T07:38:33.584Z,100.00
2022-11-22T07:41:00.850Z,100.00
2022-11-22T07:43:27.844Z,100.00
2022-11-22T07:45:58.891Z,100.00
2022-11-22T07:48:25.786Z,100.00
2022-11-22T07:50:52.672Z,100.00
2022-11-22T07:53:20.232Z,100.00
2022-11-22T07:55:46.924Z,100.00
2022-11-22T07:58:13.748Z,100.00
2022-11-22T08:00:40.635Z,100.00
2022-11-22T08:03:08.935Z,100.00
2022-11-22T08:05:35.608Z,100.00
2022-11-22T08:08:02.438Z,100.00
2022-11-22T08:10:29.008Z,100.00
2022-11-22T08:12:59.897Z,100.00
2022-11-22T08:15:27.073Z,100.00
2022-11-22T08:17:53.721Z,100.00
2022-11-22T08:20:20.404Z,100.00
2022-11-22T08:22:47.075Z,100.00
2022-11-22T08:25:13.915Z,100.00
2022-11-22T08:27:42.100Z,100.00
2022-11-22T08:30:12.108Z,100.00
2022-11-22T08:32:39.006Z,100.00
2022-11-22T08:35:06.509Z,100.00
2022-11-22T08:37:33.201Z,100.00
2022-11-22T08:40:00.031Z,100.00
2022-11-22T08:42:26.703Z,100.00
2022-11-22T08:44:53.459Z,100.00
2022-11-22T08:47:20.237Z,100.00
2022-11-22T08:49:47.016Z,100.00
2022-11-22T08:52:13.759Z,100.00
2022-11-22T08:54:40.430Z,100.00
2022-11-22T08:57:06.981Z,100.00
2022-11-22T08:59:34.001Z,100.00
2022-11-22T09:02:01.131Z,100.00
2022-11-22T09:04:27.834Z,100.00
2022-11-22T09:09:41.168Z,100.00
2022-11-22T09:12:08.323Z,100.00
2022-11-22T09:14:35.205Z,100.00
2022-11-22T09:17:01.998Z,100.00
2022-11-22T09:19:28.784Z,100.00
2022-11-22T09:21:55.491Z,100.00
2022-11-22T09:24:22.245Z,100.00
2022-11-22T09:26:48.828Z,100.00
2022-11-22T09:29:16.090Z,100.00
2022-11-22T09:31:43.980Z,100.00
2022-11-22T09:34:10.866Z,100.00
2022-11-22T09:36:37.730Z,100.00
2022-11-22T09:39:04.636Z,100.00
2022-11-22T09:42:16.098Z,100.00
2022-11-22T09:45:01.312Z,100.00
2022-11-22T09:47:46.227Z,100.00
2022-11-22T09:50:28.678Z,100.00
2022-11-22T09:53:08.189Z,100.00
2022-11-22T09:55:56.644Z,100.00
2022-11-22T09:58:38.090Z,100.00
2022-11-22T10:01:19.579Z,100.00
2022-11-22T10:03:58.071Z,100.00
2022-11-22T10:06:29.212Z,100.00
2022-11-22T10:09:17.716Z,100.00
2022-11-22T10:11:58.117Z,100.00
2022-11-22T10:15:05.055Z,100.00
2022-11-22T10:17:57.117Z,100.00
2022-11-22T10:20:28.747Z,100.00
2022-11-22T10:22:56.845Z,100.00
2022-11-22T10:25:40.137Z,100.00
2022-11-22T10:28:29.932Z,100.00
2022-11-22T10:31:14.912Z,100.00
2022-11-22T10:33:57.285Z,100.00
2022-11-22T10:36:35.939Z,100.00
2022-11-22T10:39:21.549Z,100.00
2022-11-22T10:42:15.835Z,100.00
2022-11-22T10:45:07.369Z,100.00
2022-11-22T10:47:59.951Z,100.00
2022-11-22T10:50:50.254Z,99.52
2022-11-22T10:53:32.143Z,98.34
2022-11-22T10:56:04.648Z,98.64
2022-11-22T10:58:53.397Z,100.00
2022-11-22T11:01:45.151Z,100.00
2022-11-22T11:04:16.592Z,100.00
2022-11-22T11:13:01.951Z,99.13
2022-11-22T11:15:52.802Z,98.23
2022-11-22T11:18:32.067Z,97.95
2022-11-22T11:20:58.918Z,97.58
2022-11-22T11:23:25.705Z,98.21
2022-11-22T11:25:52.693Z,96.74
2022-11-22T11:28:24.930Z,97.45
2022-11-22T11:30:58.642Z,97.55
2022-11-22T11:33:25.545Z,96.89
2022-11-22T11:36:19.564Z,97.09
2022-11-22T11:38:46.064Z,97.75
2022-11-22T11:41:22.167Z,98.60
2022-11-22T11:43:49.727Z,98.24
2022-11-22T11:46:25.427Z,98.33
2022-11-22T11:49:08.463Z,97.37
2022-11-22T11:51:40.320Z,96.59
2022-11-22T11:54:14.175Z,98.44
2022-11-22T11:56:45.831Z,97.07
2022-11-22T11:59:19.817Z,97.78
2022-11-22T12:01:55.207Z,96.25
2022-11-22T12:04:25.777Z,96.10
2022-11-22T12:07:04.832Z,95.57
2022-11-22T12:09:43.613Z,95.58
2022-11-22T12:12:49.593Z,96.22
2022-11-22T12:15:45.377Z,96.16
2022-11-22T12:18:33.654Z,94.48
2022-11-22T12:21:13.808Z,93.39
2022-11-22T12:24:42.777Z,92.20
2022-11-22T12:26:59.831Z,94.13
2022-11-22T12:29:26.749Z,93.78
2022-11-22T12:32:07.623Z,92.58
2022-11-22T12:34:41.190Z,93.60
2022-11-22T12:37:15.623Z,92.67
2022-11-22T12:39:47.595Z,93.37
2022-11-22T12:42:22.988Z,95.39
2022-11-22T12:44:57.897Z,94.20
2022-11-22T12:47:33.555Z,92.46
2022-11-22T12:50:08.756Z,94.68
2022-11-22T12:52:44.010Z,94.27
2022-11-22T12:55:24.317Z,94.90
2022-11-22T12:58:03.406Z,95.52
2022-11-22T13:00:35.483Z,94.86
2022-11-22T13:03:08.745Z,94.87
2022-11-22T13:05:45.994Z,94.00
2022-11-22T13:08:48.768Z,94.51
2022-11-22T13:11:29.960Z,96.21
2022-11-22T13:14:16.426Z,96.21
2022-11-22T13:16:47.326Z,96.31
2022-11-22T13:19:17.134Z,95.52
2022-11-22T13:22:01.814Z,96.34
2022-11-22T13:24:49.255Z,94.95
2022-11-22T13:27:25.858Z,95.22
2022-11-22T13:29:56.840Z,95.42
2022-11-22T13:32:27.089Z,95.96
2022-11-22T13:35:17.674Z,95.49
2022-11-22T13:37:50.848Z,96.32
2022-11-22T13:40:31.837Z,95.39
2022-11-22T13:43:18.005Z,95.70
2022-11-22T13:45:55.800Z,95.62
2022-11-22T13:48:57.600Z,95.83
2022-11-22T13:51:51.866Z,95.71
2022-11-22T13:54:41.697Z,96.49
2022-11-22T13:57:20.595Z,97.23
2022-11-22T13:59:47.255Z,97.54
2022-11-22T14:02:31.826Z,97.75
2022-11-22T14:04:59.334Z,97.33
2022-11-22T14:07:34.325Z,96.82
2022-11-22T14:10:02.413Z,97.23
2022-11-22T14:12:45.769Z,97.23
2022-11-22T14:15:27.562Z,96.47
2022-11-22T14:18:09.319Z,96.77
2022-11-22T14:20:45.329Z,96.63
2022-11-22T14:23:30.391Z,96.32
2022-11-22T14:26:30.543Z,96.95
2022-11-22T14:29:21.760Z,98.11
2022-11-22T14:31:56.209Z,97.41
2022-11-22T14:34:28.264Z,98.22
2022-11-22T14:37:13.095Z,99.01
2022-11-22T14:39:45.597Z,98.84
2022-11-22T14:42:47.256Z,99.51
2022-11-22T14:45:31.116Z,100.00
2022-11-22T14:48:45.089Z,100.00
2022-11-22T14:51:31.924Z,100.00
2022-11-22T14:54:01.628Z,100.00
2022-11-22T14:56:38.079Z,100.00
2022-11-22T14:59:30.473Z,100.00
2022-11-22T15:02:28.412Z,100.00
2022-11-22T15:09:11.956Z,100.00
2022-11-22T15:09:20.508Z,100.00
2022-11-22T15:10:48.489Z,100.00
2022-11-22T15:13:37.189Z,100.00
2022-11-22T15:59:42.176Z,100.00
2022-11-22T16:02:20.503Z,100.00
2022-11-22T16:06:10.195Z,100.00
2022-11-22T16:07:47.235Z,100.00
2022-11-22T16:10:16.652Z,100.00
2022-11-22T16:12:43.483Z,100.00
2022-11-22T16:15:30.505Z,100.00
2022-11-22T16:18:10.357Z,100.00
2022-11-22T16:20:38.738Z,100.00
2022-11-22T16:23:12.544Z,100.00
2022-11-22T16:25:42.659Z,100.00
2022-11-22T16:28:38.084Z,100.00
2022-11-22T16:31:17.483Z,100.00
2022-11-22T16:33:44.695Z,100.00
2022-11-22T16:36:14.737Z,100.00
2022-11-22T16:38:42.545Z,100.00
2022-11-22T16:41:26.579Z,100.00
2022-11-22T16:43:59.675Z,100.00
2022-11-22T16:46:26.346Z,100.00
2022-11-22T16:48:53.386Z,100.00
2022-11-22T16:51:24.165Z,100.00
2022-11-22T16:53:53.467Z,100.00
2022-11-22T16:56:23.041Z,100.00
2022-11-22T16:58:51.223Z,100.00
2022-11-22T17:01:21.850Z,100.00
2022-11-22T17:03:52.153Z,100.00
2022-11-22T17:06:21.157Z,100.00
2022-11-22T17:08:49.938Z,100.00
2022-11-22T17:11:19.150Z,100.00
2022-11-22T17:13:46.347Z,100.00
2022-11-22T17:16:14.286Z,100.00
2022-11-22T17:18:40.870Z,100.00
2022-11-22T17:21:20.966Z,100.00
2022-11-22T17:23:48.503Z,100.00
2022-11-22T17:26:15.220Z,100.00
2022-11-22T17:28:42.023Z,100.00
2022-11-22T17:31:17.943Z,100.00
2022-11-22T17:33:44.988Z,100.00
2022-11-22T17:36:21.184Z,100.00
2022-11-22T17:38:47.917Z,100.00
2022-11-22T17:41:14.622Z,100.00
2022-11-22T17:43:41.231Z,100.00
2022-11-22T17:46:07.825Z,100.00
2022-11-22T17:48:34.543Z,100.00
2022-11-22T17:51:08.739Z,100.00
2022-11-22T17:53:35.620Z,100.00
2022-11-22T17:56:10.557Z,100.00
2022-11-22T17:58:38.717Z,100.00
2022-11-22T18:01:09.736Z,100.00
2022-11-22T18:03:36.869Z,100.00
2022-11-22T18:06:03.818Z,100.00
2022-11-22T18:08:31.004Z,100.00
2022-11-22T18:11:00.003Z,100.00
2022-11-22T18:13:31.400Z,100.00
2022-11-22T18:16:03.522Z,100.00
2022-11-22T18:18:55.747Z,100.00
2022-11-22T18:21:17.946Z,100.00
2022-11-22T18:23:45.515Z,100.00
2022-11-22T18:29:35.520Z,100.00
2022-11-22T18:31:54.295Z,100.00
2022-11-22T18:34:22.665Z,100.00
2022-11-22T18:37:01.251Z,100.00
2022-11-22T18:39:31.194Z,100.00
2022-11-22T18:41:58.241Z,100.00
2022-11-22T18:44:25.083Z,100.00
2022-11-22T18:46:51.818Z,100.00
2022-11-22T18:49:18.556Z,100.00
2022-11-22T18:51:45.302Z,100.00
2022-11-22T18:54:12.009Z,100.00
2022-11-22T18:56:40.744Z,100.00
2022-11-22T18:59:10.112Z,100.00
2022-11-22T19:01:36.822Z,100.00
2022-11-22T19:04:03.687Z,100.00
2022-11-22T19:06:30.832Z,100.00
2022-11-22T19:08:57.728Z,100.00
2022-11-22T19:11:24.436Z,100.00
2022-11-22T19:13:51.146Z,100.00
2022-11-22T19:16:21.518Z,100.00
2022-11-22T19:18:48.987Z,100.00
2022-11-22T19:21:18.804Z,100.00
2022-11-22T19:23:45.404Z,100.00
2022-11-22T19:26:17.531Z,100.00
2022-11-22T19:28:44.175Z,100.00
2022-11-22T19:31:13.831Z,100.00
2022-11-22T19:33:40.681Z,100.00
2022-11-22T19:36:11.637Z,100.00
2022-11-22T19:38:38.253Z,100.00
2022-11-22T19:41:13.019Z,100.00
2022-11-22T19:43:39.893Z,100.00
2022-11-22T19:46:06.915Z,100.00
2022-11-22T19:48:35.495Z,100.00
2022-11-22T19:51:14.052Z,100.00
2022-11-22T19:53:42.157Z,100.00
2022-11-22T19:56:19.555Z,100.00
2022-11-22T19:58:54.202Z,100.00
2022-11-22T20:01:23.112Z,100.00
2022-11-22T20:03:55.009Z,100.00
2022-11-22T20:06:22.001Z,100.00
2022-11-22T20:08:48.975Z,100.00
2022-11-22T20:11:18.948Z,100.00
2022-11-22T20:13:48.418Z,100.00
2022-11-22T20:16:17.895Z,100.00
2022-11-22T20:18:44.565Z,100.00
2022-11-22T20:21:11.705Z,100.00
2022-11-22T20:23:38.916Z,100.00
2022-11-22T20:26:11.308Z,100.00
2022-11-22T20:28:39.121Z,100.00
2022-11-22T20:31:13.792Z,100.00
2022-11-22T20:33:43.972Z,100.00
2022-11-22T20:36:13.244Z,100.00
2022-11-22T20:38:42.039Z,100.00
2022-11-22T20:41:10.816Z,100.00
2022-11-22T20:43:37.907Z,100.00
2022-11-22T20:46:07.699Z,100.00
2022-11-22T20:48:35.682Z,100.00
2022-11-22T20:51:05.477Z,100.00
2022-11-22T20:53:32.654Z,100.00
2022-11-22T20:55:59.268Z,100.00
2022-11-22T20:58:28.249Z,100.00
2022-11-22T21:00:56.360Z,100.00
2022-11-22T21:03:23.572Z,100.00
2022-11-22T21:05:52.287Z,100.00
2022-11-22T21:08:19.610Z,100.00
2022-11-22T21:10:46.241Z,100.00
2022-11-22T21:13:12.904Z,100.00
2022-11-22T21:15:39.521Z,100.00
2022-11-22T21:20:52.808Z,100.00
2022-11-22T21:23:19.430Z,100.00
2022-11-22T21:25:46.527Z,100.00
2022-11-22T21:28:13.117Z,100.00
2022-11-22T21:30:39.577Z,100.00
2022-11-22T21:33:06.055Z,100.00
2022-11-22T21:35:32.554Z,100.00
2022-11-22T21:37:59.017Z,100.00
2022-11-22T21:40:25.773Z,100.00
2022-11-22T21:42:52.341Z,100.00
2022-11-22T21:45:19.028Z,100.00
2022-11-22T21:47:48.510Z,100.00
2022-11-22T21:50:15.590Z,100.00
2022-11-22T21:52:42.766Z,100.00
2022-11-22T21:55:09.957Z,100.00
2022-11-22T21:57:36.601Z,100.00
2022-11-22T22:00:05.011Z,100.00
2022-11-22T22:02:33.041Z,100.00
2022-11-22T22:04:59.748Z,100.00
2022-11-22T22:10:14.362Z,100.00
2022-11-22T22:12:41.150Z,100.00
2022-11-22T22:15:10.838Z,100.00
2022-11-22T22:17:37.437Z,100.00
2022-11-22T22:20:04.789Z,100.00
2022-11-22T22:22:31.374Z,100.00
2022-11-22T22:24:58.144Z,100.00
2022-11-22T22:27:24.760Z,100.00
2022-11-22T22:29:51.326Z,100.00
2022-11-22T22:32:17.940Z,100.00
2022-11-22T22:34:44.496Z,100.00
2022-11-22T22:37:11.111Z,100.00
2022-11-22T22:39:37.687Z,100.00
2022-11-22T22:42:04.448Z,100.00
2022-11-22T22:44:32.791Z,100.00
2022-11-22T22:46:59.594Z,100.00
2022-11-22T22:49:26.297Z,100.00
2022-11-22T22:51:55.248Z,100.00
2022-11-22T22:54:22.516Z,100.00
2022-11-22T22:56:49.636Z,100.00
2022-11-22T22:59:16.222Z,100.00
2022-11-22T23:01:42.972Z,100.00
2022-11-22T23:04:09.951Z,100.00
2022-11-22T23:06:38.566Z,100.00
2022-11-22T23:09:08.376Z,100.00
2022-11-22T23:11:55.053Z,100.00
2022-11-22T23:14:24.075Z,100.00
2022-11-22T23:16:55.930Z,100.00
2022-11-22T23:19:24.343Z,100.00
2022-11-22T23:21:51.043Z,100.00
2022-11-22T23:24:17.858Z,100.00
2022-11-22T23:26:44.421Z,100.00
2022-11-22T23:29:11.200Z,100.00
2022-11-22T23:31:38.135Z,100.00
2022-11-22T23:34:04.921Z,100.00
2022-11-22T23:36:34.802Z,100.00
2022-11-22T23:39:04.298Z,100.00
2022-11-22T23:41:30.903Z,100.00
2022-11-22T23:43:57.556Z,100.00
2022-11-22T23:46:27.645Z,100.00
2022-11-22T23:48:59.239Z,100.00
2022-11-22T23:51:28.180Z,100.00
2022-11-22T23:53:56.307Z,100.00
2022-11-22T23:56:23.552Z,100.00
2022-11-22T23:58:51.100Z,100.00
